Time;durP1;ratioP1;P1;durP2;ratioP2;P2;SDS_P1;SDS_P2;PMS_P1;PMS_P2;Temp;Humidity;BMP_temperature;BMP_pressure;BME280_temperature;BME280_humidity;BME280_pressure;Samples;Min_cycle;Max_cycle;Signal;HPM_P1;HPM_P2
2023/06/18 00:01:18;;;;;;;;;;;19.80;50.40;;;;;;5051887;28;20365;-76
2023/06/18 00:03:43;;;;;;;;;;;19.70;50.20;;;;;;5054018;28;19925;-76
2023/06/18 00:06:09;;;;;;;;;;;19.70;50.70;;;;;;5036436;28;19928;-76
2023/06/18 00:08:34;;;;;;;;;;;19.60;51.70;;;;;;5054124;28;19917;-76
2023/06/18 00:11:00;;;;;;;;;;;19.60;51.30;;;;;;5053690;28;19909;-76
2023/06/18 00:13:25;;;;;;;;;;;19.50;51.00;;;;;;5053425;28;19928;-75
2023/06/18 00:15:51;;;;;;;;;;;19.50;51.30;;;;;;5053604;28;19909;-77
2023/06/18 00:18:16;;;;;;;;;;;19.50;51.20;;;;;;5053956;28;19917;-77
2023/06/18 00:20:42;;;;;;;;;;;19.40;51.10;;;;;;5051938;28;19920;-76
2023/06/18 00:23:07;;;;;;;;;;;19.30;51.00;;;;;;5053467;28;19916;-76
2023/06/18 00:25:32;;;;;;;;;;;19.30;50.90;;;;;;5050950;28;19971;-77
2023/06/18 00:27:58;;;;;;;;;;;19.30;50.90;;;;;;5053243;28;19921;-79
2023/06/18 00:30:23;;;;;;;;;;;19.20;50.90;;;;;;5053387;28;19916;-78
2023/06/18 00:32:51;;;;;;;;;;;19.20;50.90;;;;;;5070954;28;20425;-78
2023/06/18 00:35:16;;;;;;;;;;;19.10;51.00;;;;;;5033353;28;19913;-76
2023/06/18 00:37:44;;;;;;;;;;;19.10;51.10;;;;;;5033223;28;20277;-78
2023/06/18 00:40:12;;;;;;;;;;;19.10;51.60;;;;;;5033580;28;19919;-78
2023/06/18 00:42:39;;;;;;;;;;;19.00;51.60;;;;;;5033684;28;20254;-78
2023/06/18 00:45:04;;;;;;;;;;;19.00;52.00;;;;;;5015576;28;19921;-78
2023/06/18 00:47:30;;;;;;;;;;;19.00;51.80;;;;;;5033078;28;19916;-77
2023/06/18 00:49:56;;;;;;;;;;;18.90;51.70;;;;;;5051193;28;19913;-77
2023/06/18 00:52:23;;;;;;;;;;;18.90;51.60;;;;;;5052947;28;20379;-78
2023/06/18 00:54:49;;;;;;;;;;;18.80;51.60;;;;;;5052978;28;19909;-75
2023/06/18 00:57:17;;;;;;;;;;;18.80;51.70;;;;;;5051801;28;20222;-76
2023/06/18 00:59:42;;;;;;;;;;;18.80;51.90;;;;;;5053329;28;20010;-78
2023/06/18 01:02:08;;;;;;;;;;;18.80;52.10;;;;;;5053006;28;19908;-78
2023/06/18 01:04:36;;;;;;;;;;;18.70;51.90;;;;;;5050668;28;20351;-76
2023/06/18 01:07:03;;;;;;;;;;;18.70;52.10;;;;;;5053092;28;19952;-78
2023/06/18 01:09:29;;;;;;;;;;;18.70;52.10;;;;;;5053294;28;19951;-78
2023/06/18 01:11:55;;;;;;;;;;;18.70;52.00;;;;;;5052792;28;19916;-78
2023/06/18 01:14:26;;;;;;;;;;;18.70;52.00;;;;;;5035235;28;20019;-78
2023/06/18 01:16:56;;;;;;;;;;;18.70;52.10;;;;;;5050500;28;19940;-78
2023/06/18 01:19:27;;;;;;;;;;;18.60;52.00;;;;;;5052947;28;19978;-78
2023/06/18 01:21:56;;;;;;;;;;;18.60;52.00;;;;;;5052388;28;19920;-76
2023/06/18 01:24:23;;;;;;;;;;;18.60;52.40;;;;;;5052707;28;20410;-77
2023/06/18 01:26:51;;;;;;;;;;;18.50;52.70;;;;;;5051455;28;19913;-78
2023/06/18 01:29:16;;;;;;;;;;;18.50;52.60;;;;;;5051086;28;19953;-78
2023/06/18 01:31:42;;;;;;;;;;;18.50;53.00;;;;;;5062166;28;20371;-77
2023/06/18 01:34:08;;;;;;;;;;;18.40;53.40;;;;;;5072253;28;19916;-77
2023/06/18 01:36:34;;;;;;;;;;;18.40;53.20;;;;;;5065468;28;19952;-76
2023/06/18 01:39:07;;;;;;;;;;;18.30;53.10;;;;;;5052146;28;19917;-73
2023/06/18 01:41:34;;;;;;;;;;;18.30;52.90;;;;;;5051941;28;19909;-76
2023/06/18 01:44:02;;;;;;;;;;;18.30;52.90;;;;;;5052162;28;19999;-76
2023/06/18 01:46:29;;;;;;;;;;;18.20;52.90;;;;;;5051906;28;19908;-76
2023/06/18 01:48:59;;;;;;;;;;;18.10;52.80;;;;;;5049885;28;19921;-76
2023/06/18 01:51:27;;;;;;;;;;;18.10;52.80;;;;;;5051878;28;20296;-77
2023/06/18 01:53:53;;;;;;;;;;;18.10;52.90;;;;;;5051954;28;19936;-77
2023/06/18 01:56:20;;;;;;;;;;;18.10;53.10;;;;;;5051557;28;19913;-76
2023/06/18 01:58:45;;;;;;;;;;;18.00;53.10;;;;;;5050750;28;19917;-76
2023/06/18 02:01:11;;;;;;;;;;;18.00;53.10;;;;;;5051434;28;19908;-77
2023/06/18 02:03:37;;;;;;;;;;;18.00;53.30;;;;;;5049466;28;19917;-75
2023/06/18 02:06:03;;;;;;;;;;;17.90;53.70;;;;;;5051232;28;19920;-77
2023/06/18 02:08:28;;;;;;;;;;;17.90;53.60;;;;;;5052055;28;19923;-77
2023/06/18 02:10:54;;;;;;;;;;;17.90;53.50;;;;;;5050748;28;20019;-77
2023/06/18 02:13:19;;;;;;;;;;;17.80;53.50;;;;;;5037619;28;19927;-77
2023/06/18 02:15:45;;;;;;;;;;;17.80;53.50;;;;;;5058256;28;19966;-77
2023/06/18 02:18:11;;;;;;;;;;;17.70;53.60;;;;;;5058121;28;19923;-77
2023/06/18 02:20:38;;;;;;;;;;;17.70;53.70;;;;;;5057961;28;19909;-77
2023/06/18 02:23:03;;;;;;;;;;;17.70;53.60;;;;;;5056115;28;19916;-77
2023/06/18 02:25:29;;;;;;;;;;;17.60;53.60;;;;;;5058007;28;20316;-76
2023/06/18 02:27:55;;;;;;;;;;;17.50;53.80;;;;;;5057007;28;20383;-77
2023/06/18 02:30:21;;;;;;;;;;;17.50;53.90;;;;;;5057858;28;20329;-77
2023/06/18 02:32:48;;;;;;;;;;;17.50;53.90;;;;;;5061471;28;20005;-77
2023/06/18 02:35:14;;;;;;;;;;;17.50;53.80;;;;;;5057752;28;19959;-77
2023/06/18 02:37:41;;;;;;;;;;;17.40;53.80;;;;;;5057744;28;20348;-76
2023/06/18 02:40:06;;;;;;;;;;;17.40;53.90;;;;;;5056363;28;19919;-77
2023/06/18 02:42:32;;;;;;;;;;;17.40;54.10;;;;;;5057929;28;20370;-77
2023/06/18 02:44:57;;;;;;;;;;;17.40;54.20;;;;;;5057868;28;19999;-77
2023/06/18 02:47:23;;;;;;;;;;;17.40;54.20;;;;;;5057657;28;20391;-78
2023/06/18 02:49:48;;;;;;;;;;;17.30;54.20;;;;;;5056907;28;19959;-77
2023/06/18 02:52:14;;;;;;;;;;;17.40;54.30;;;;;;5056602;28;19913;-76
2023/06/18 02:54:41;;;;;;;;;;;17.30;54.40;;;;;;5057922;28;19928;-77
2023/06/18 02:57:08;;;;;;;;;;;17.30;54.30;;;;;;5056962;28;19952;-77
2023/06/18 02:59:33;;;;;;;;;;;17.30;54.30;;;;;;5058416;28;19917;-77
2023/06/18 03:02:00;;;;;;;;;;;17.30;54.30;;;;;;5056598;28;19939;-70
2023/06/18 03:04:26;;;;;;;;;;;17.20;54.30;;;;;;5058358;28;19947;-69
2023/06/18 03:06:53;;;;;;;;;;;17.20;54.30;;;;;;5057611;28;19978;-69
2023/06/18 03:09:19;;;;;;;;;;;17.10;54.20;;;;;;5056490;28;19916;-69
2023/06/18 03:11:44;;;;;;;;;;;17.10;54.40;;;;;;5057364;28;20388;-69
2023/06/18 03:14:10;;;;;;;;;;;17.10;54.50;;;;;;5058045;28;20046;-69
2023/06/18 03:16:35;;;;;;;;;;;17.10;54.50;;;;;;5056693;28;19924;-70
2023/06/18 03:19:01;;;;;;;;;;;17.00;54.70;;;;;;5057742;28;19917;-70
2023/06/18 03:21:26;;;;;;;;;;;17.10;54.90;;;;;;5039545;28;19909;-69
2023/06/18 03:23:52;;;;;;;;;;;17.10;55.00;;;;;;5056353;28;19913;-70
2023/06/18 03:26:17;;;;;;;;;;;17.10;55.10;;;;;;5054336;28;20299;-70
2023/06/18 03:28:43;;;;;;;;;;;17.20;55.90;;;;;;5053009;28;19924;-69
2023/06/18 03:31:09;;;;;;;;;;;17.30;56.60;;;;;;5059785;28;19909;-69
2023/06/18 03:33:35;;;;;;;;;;;17.40;56.50;;;;;;5074507;28;20275;-71
2023/06/18 03:36:00;;;;;;;;;;;17.50;56.30;;;;;;5074038;28;19996;-70
2023/06/18 03:38:27;;;;;;;;;;;17.70;56.30;;;;;;5059090;28;19986;-69
2023/06/18 03:40:52;;;;;;;;;;;17.80;56.20;;;;;;5054020;28;20338;-69
2023/06/18 03:43:18;;;;;;;;;;;18.00;56.20;;;;;;5035229;28;19956;-70
2023/06/18 03:45:43;;;;;;;;;;;18.20;56.10;;;;;;5054103;28;19917;-69
2023/06/18 03:48:09;;;;;;;;;;;18.40;56.20;;;;;;5053961;28;19917;-69
2023/06/18 03:50:35;;;;;;;;;;;18.50;56.20;;;;;;5052995;28;19924;-70
2023/06/18 03:53:01;;;;;;;;;;;18.80;56.10;;;;;;5054102;28;20415;-70
2023/06/18 03:55:26;;;;;;;;;;;19.00;56.10;;;;;;5053925;28;19916;-69
2023/06/18 03:57:52;;;;;;;;;;;19.30;56.00;;;;;;5053687;28;20047;-69
2023/06/18 04:00:17;;;;;;;;;;;19.50;56.00;;;;;;5053504;28;19908;-69
2023/06/18 04:02:43;;;;;;;;;;;19.80;55.90;;;;;;5035549;28;19924;-70
2023/06/18 04:05:08;;;;;;;;;;;20.00;55.70;;;;;;5044895;28;20442;-70
2023/06/18 04:07:34;;;;;;;;;;;20.30;55.60;;;;;;5052044;28;19924;-70
2023/06/18 04:09:59;;;;;;;;;;;20.50;55.50;;;;;;5053646;28;19923;-70
2023/06/18 04:12:25;;;;;;;;;;;20.80;55.30;;;;;;5052983;28;20375;-71
2023/06/18 04:14:50;;;;;;;;;;;21.20;55.20;;;;;;5053660;28;19908;-71
2023/06/18 04:17:16;;;;;;;;;;;21.40;54.90;;;;;;5053765;28;20287;-70
2023/06/18 04:19:41;;;;;;;;;;;21.70;54.60;;;;;;5054047;28;20343;-70
2023/06/18 04:22:08;;;;;;;;;;;22.00;54.20;;;;;;5052315;28;20264;-70
2023/06/18 04:24:34;;;;;;;;;;;22.30;53.60;;;;;;5052745;28;19921;-70
2023/06/18 04:26:59;;;;;;;;;;;22.60;53.20;;;;;;5053333;28;19917;-69
2023/06/18 04:29:24;;;;;;;;;;;22.90;53.10;;;;;;5053016;28;19943;-70
2023/06/18 04:31:50;;;;;;;;;;;23.30;52.70;;;;;;5047152;28;19908;-70
2023/06/18 04:34:16;;;;;;;;;;;23.70;52.20;;;;;;5052916;28;20394;-70
2023/06/18 04:36:41;;;;;;;;;;;24.10;51.70;;;;;;5052649;28;19909;-70
2023/06/18 04:39:07;;;;;;;;;;;24.40;51.20;;;;;;5052000;28;19924;-70
2023/06/18 04:41:32;;;;;;;;;;;24.80;50.60;;;;;;5053144;28;19909;-70
2023/06/18 04:43:58;;;;;;;;;;;25.20;49.80;;;;;;5052911;28;19956;-70
2023/06/18 04:46:23;;;;;;;;;;;25.50;49.20;;;;;;5052360;28;19909;-71
2023/06/18 04:48:49;;;;;;;;;;;25.90;48.60;;;;;;5053184;28;20008;-70
2023/06/18 04:51:14;;;;;;;;;;;26.30;47.90;;;;;;5052899;28;20003;-70
2023/06/18 04:53:40;;;;;;;;;;;26.70;47.10;;;;;;5053185;28;20287;-70
2023/06/18 04:56:06;;;;;;;;;;;27.00;45.70;;;;;;5051718;28;19912;-71
2023/06/18 04:58:36;;;;;;;;;;;27.30;44.90;;;;;;5053212;28;20392;-70
2023/06/18 05:01:02;;;;;;;;;;;27.50;44.40;;;;;;5034900;28;19909;-71
2023/06/18 05:03:28;;;;;;;;;;;27.80;44.30;;;;;;5053107;28;19917;-72
2023/06/18 05:05:53;;;;;;;;;;;28.10;43.10;;;;;;5034828;28;19913;-70
2023/06/18 05:08:19;;;;;;;;;;;28.40;43.10;;;;;;5052572;28;19971;-70
2023/06/18 05:10:44;;;;;;;;;;;28.70;40.80;;;;;;5052498;28;19971;-70
2023/06/18 05:13:10;;;;;;;;;;;28.80;40.00;;;;;;5050834;28;19967;-70
2023/06/18 05:15:35;;;;;;;;;;;28.90;40.00;;;;;;5052525;28;19912;-71
2023/06/18 05:18:00;;;;;;;;;;;29.10;39.90;;;;;;5052228;28;19917;-71
2023/06/18 05:20:26;;;;;;;;;;;29.30;39.60;;;;;;5052217;28;20288;-71
2023/06/18 05:22:51;;;;;;;;;;;29.70;38.90;;;;;;5051996;28;20364;-70
2023/06/18 05:25:17;;;;;;;;;;;29.90;38.40;;;;;;5051946;28;19913;-70
2023/06/18 05:27:42;;;;;;;;;;;30.10;38.50;;;;;;5052165;28;20316;-70
2023/06/18 05:30:08;;;;;;;;;;;30.40;37.40;;;;;;5051970;28;19909;-71
2023/06/18 05:32:33;;;;;;;;;;;30.60;37.30;;;;;;5069363;28;20386;-70
2023/06/18 05:34:59;;;;;;;;;;;30.70;37.00;;;;;;5052837;28;19913;-71
2023/06/18 05:37:24;;;;;;;;;;;30.90;36.70;;;;;;5052001;28;20009;-70
2023/06/18 05:39:51;;;;;;;;;;;31.20;36.40;;;;;;5052015;28;19948;-70
2023/06/18 05:42:17;;;;;;;;;;;31.50;36.20;;;;;;5050069;28;19966;-70
2023/06/18 05:44:42;;;;;;;;;;;31.80;35.90;;;;;;5051304;28;19920;-70
2023/06/18 05:47:07;;;;;;;;;;;32.20;35.60;;;;;;5049196;28;19913;-70
2023/06/18 05:49:33;;;;;;;;;;;32.50;34.90;;;;;;5047757;28;19917;-71
2023/06/18 05:51:58;;;;;;;;;;;32.80;34.70;;;;;;5051039;28;20380;-70
2023/06/18 05:54:25;;;;;;;;;;;33.30;34.30;;;;;;5050157;28;19970;-70
2023/06/18 05:56:51;;;;;;;;;;;33.50;33.70;;;;;;5051771;28;20371;-70
2023/06/18 05:59:17;;;;;;;;;;;33.80;33.30;;;;;;5051915;28;19917;-71
2023/06/18 06:01:42;;;;;;;;;;;34.20;32.90;;;;;;5049521;28;19909;-70
2023/06/18 06:04:08;;;;;;;;;;;34.50;32.40;;;;;;5055289;28;20016;-71
2023/06/18 06:06:33;;;;;;;;;;;34.70;31.80;;;;;;5051483;28;19917;-71
2023/06/18 06:09:00;;;;;;;;;;;34.70;31.40;;;;;;5051557;28;19913;-71
2023/06/18 06:11:25;;;;;;;;;;;35.00;31.40;;;;;;5048161;28;20252;-71
2023/06/18 06:13:51;;;;;;;;;;;35.30;31.00;;;;;;5051467;28;19917;-71
2023/06/18 06:16:16;;;;;;;;;;;35.70;30.60;;;;;;5051530;28;19916;-72
2023/06/18 06:18:42;;;;;;;;;;;36.00;30.40;;;;;;5051190;28;19917;-72
2023/06/18 06:21:07;;;;;;;;;;;36.30;30.00;;;;;;5047444;28;20036;-72
2023/06/18 06:23:33;;;;;;;;;;;36.60;29.60;;;;;;5051485;28;19966;-71
2023/06/18 06:25:58;;;;;;;;;;;36.90;29.20;;;;;;5050980;28;19936;-72
2023/06/18 06:28:23;;;;;;;;;;;37.20;28.90;;;;;;5049725;28;20164;-72
2023/06/18 06:30:49;;;;;;;;;;;37.40;28.10;;;;;;5054369;28;19932;-72
2023/06/18 06:33:15;;;;;;;;;;;37.50;27.90;;;;;;5070291;28;20390;-71
2023/06/18 06:35:40;;;;;;;;;;;37.80;27.40;;;;;;5071512;28;20007;-72
2023/06/18 06:38:05;;;;;;;;;;;37.80;26.70;;;;;;5056515;28;19917;-72
2023/06/18 06:40:31;;;;;;;;;;;37.80;26.80;;;;;;5046467;28;19962;-71
2023/06/18 06:42:56;;;;;;;;;;;38.00;26.60;;;;;;5051412;28;19917;-72
2023/06/18 06:45:22;;;;;;;;;;;38.00;26.10;;;;;;5047104;28;19917;-71
2023/06/18 06:47:48;;;;;;;;;;;38.20;26.10;;;;;;5040367;28;19917;-71
2023/06/18 06:50:14;;;;;;;;;;;38.40;26.00;;;;;;5031292;28;19913;-72
2023/06/18 06:52:39;;;;;;;;;;;38.70;25.90;;;;;;5034692;28;20000;-72
2023/06/18 06:55:05;;;;;;;;;;;38.90;25.70;;;;;;5050889;28;20008;-69
2023/06/18 06:57:30;;;;;;;;;;;39.10;25.30;;;;;;5050858;28;19909;-69
2023/06/18 06:59:56;;;;;;;;;;;39.20;25.40;;;;;;5053677;28;20346;-70
2023/06/18 07:02:21;;;;;;;;;;;39.40;25.20;;;;;;5054674;28;19909;-70
2023/06/18 07:04:48;;;;;;;;;;;39.70;25.00;;;;;;5053399;28;19966;-70
2023/06/18 07:07:14;;;;;;;;;;;39.90;24.90;;;;;;5066938;28;20114;-71
2023/06/18 07:09:39;;;;;;;;;;;40.10;24.50;;;;;;5055308;28;19927;-71
2023/06/18 07:12:05;;;;;;;;;;;40.40;24.20;;;;;;5062005;28;20007;-71
2023/06/18 07:14:30;;;;;;;;;;;40.70;23.90;;;;;;5074950;28;19917;-71
2023/06/18 07:16:57;;;;;;;;;;;40.70;23.80;;;;;;5073208;28;19916;-71
2023/06/18 07:19:22;;;;;;;;;;;40.90;23.80;;;;;;5074903;28;20003;-71
2023/06/18 07:21:50;;;;;;;;;;;41.10;23.50;;;;;;5074518;28;19954;-71
2023/06/18 07:24:15;;;;;;;;;;;41.40;23.20;;;;;;5074821;28;19917;-71
2023/06/18 07:26:41;;;;;;;;;;;41.70;22.80;;;;;;5059621;28;20379;-71
2023/06/18 07:29:06;;;;;;;;;;;41.80;22.70;;;;;;5054779;28;20406;-71
2023/06/18 07:31:32;;;;;;;;;;;41.60;21.90;;;;;;5063211;28;20306;-71
2023/06/18 07:33:57;;;;;;;;;;;41.60;22.30;;;;;;5064289;28;19917;-70
2023/06/18 07:36:23;;;;;;;;;;;41.60;21.90;;;;;;5052572;28;20218;-70
2023/06/18 07:38:48;;;;;;;;;;;41.50;22.00;;;;;;5052823;28;19917;-71
2023/06/18 07:41:14;;;;;;;;;;;41.40;22.00;;;;;;5052968;28;19982;-70
2023/06/18 07:43:40;;;;;;;;;;;41.40;21.80;;;;;;5054227;28;19916;-70
2023/06/18 07:46:06;;;;;;;;;;;41.40;22.10;;;;;;5053256;28;19917;-71
2023/06/18 07:48:31;;;;;;;;;;;41.70;22.00;;;;;;5051451;28;19924;-70
2023/06/18 07:50:57;;;;;;;;;;;41.90;21.90;;;;;;5044344;28;20326;-70
2023/06/18 07:53:22;;;;;;;;;;;42.30;21.80;;;;;;5043713;28;19917;-70
2023/06/18 07:55:48;;;;;;;;;;;42.70;21.60;;;;;;5043198;28;19983;-70
2023/06/18 07:58:13;;;;;;;;;;;43.10;21.40;;;;;;5047925;28;19921;-70
2023/06/18 08:00:39;;;;;;;;;;;43.40;21.30;;;;;;5041246;28;20391;-70
2023/06/18 08:03:04;;;;;;;;;;;43.50;21.00;;;;;;5033862;28;19921;-70
2023/06/18 08:05:30;;;;;;;;;;;43.60;20.40;;;;;;5033742;28;19913;-70
2023/06/18 08:07:56;;;;;;;;;;;43.60;20.50;;;;;;5033807;28;19924;-70
2023/06/18 08:10:21;;;;;;;;;;;43.80;20.40;;;;;;5034389;28;19932;-70
2023/06/18 08:12:47;;;;;;;;;;;44.00;20.40;;;;;;5039789;28;19927;-70
2023/06/18 08:15:12;;;;;;;;;;;44.20;20.10;;;;;;5052433;28;20280;-70
2023/06/18 08:17:37;;;;;;;;;;;44.20;19.60;;;;;;5048829;28;20422;-71
2023/06/18 08:20:04;;;;;;;;;;;44.20;19.50;;;;;;5043644;28;19913;-72
2023/06/18 08:22:29;;;;;;;;;;;44.30;19.60;;;;;;5051089;28;19944;-70
2023/06/18 08:24:55;;;;;;;;;;;44.60;19.40;;;;;;5053411;28;19983;-71
2023/06/18 08:27:20;;;;;;;;;;;44.80;19.20;;;;;;5049952;28;19913;-70
2023/06/18 08:29:46;;;;;;;;;;;45.10;19.00;;;;;;5050293;28;19913;-71
2023/06/18 08:32:13;;;;;;;;;;;45.30;18.90;;;;;;5056863;28;19921;-71
2023/06/18 08:34:42;;;;;;;;;;;45.70;18.70;;;;;;5050322;28;19921;-70
2023/06/18 08:37:08;;;;;;;;;;;45.90;18.50;;;;;;5052036;28;19959;-70
2023/06/18 08:39:33;;;;;;;;;;;46.10;18.20;;;;;;5051848;28;19917;-70
2023/06/18 08:42:00;;;;;;;;;;;46.30;17.80;;;;;;5050176;28;20434;-70
2023/06/18 08:44:26;;;;;;;;;;;46.40;17.60;;;;;;5052406;28;19932;-70
2023/06/18 08:46:53;;;;;;;;;;;46.50;17.60;;;;;;5052549;28;20399;-69
2023/06/18 08:49:18;;;;;;;;;;;46.80;17.50;;;;;;5047062;28;19921;-70
2023/06/18 08:51:44;;;;;;;;;;;47.00;17.50;;;;;;5035817;28;19917;-70
2023/06/18 08:54:12;;;;;;;;;;;47.30;17.50;;;;;;5050515;28;19935;-71
2023/06/18 08:56:42;;;;;;;;;;;47.30;16.70;;;;;;5052305;28;19909;-71
2023/06/18 08:59:08;;;;;;;;;;;47.30;16.80;;;;;;5052522;28;20288;-71
2023/06/18 09:01:34;;;;;;;;;;;47.50;16.50;;;;;;5051355;28;19917;-70
2023/06/18 09:04:00;;;;;;;;;;;47.50;16.60;;;;;;5051117;28;20315;-71
2023/06/18 09:06:26;;;;;;;;;;;47.70;16.60;;;;;;5052780;28;20392;-71
2023/06/18 09:08:52;;;;;;;;;;;47.80;16.10;;;;;;5040522;28;19959;-71
2023/06/18 09:11:17;;;;;;;;;;;47.80;15.70;;;;;;5052346;28;19964;-69
2023/06/18 09:13:43;;;;;;;;;;;47.50;15.50;;;;;;5052526;28;19917;-70
2023/06/18 09:16:09;;;;;;;;;;;47.30;15.90;;;;;;5049691;28;19912;-71
2023/06/18 09:18:34;;;;;;;;;;;47.30;15.80;;;;;;5042715;28;20051;-70
2023/06/18 09:21:00;;;;;;;;;;;47.20;15.50;;;;;;5052228;28;19995;-71
2023/06/18 09:23:25;;;;;;;;;;;47.10;15.40;;;;;;5050604;28;19916;-69
2023/06/18 09:25:52;;;;;;;;;;;47.10;15.60;;;;;;5051982;28;19913;-71
2023/06/18 09:28:18;;;;;;;;;;;47.10;15.20;;;;;;5052167;28;19917;-71
2023/06/18 09:30:51;;;;;;;;;;;46.80;15.20;;;;;;5053677;28;19928;-70
2023/06/18 09:33:33;;;;;;;;;;;46.70;15.10;;;;;;5055817;28;19920;-70
2023/06/18 09:35:59;;;;;;;;;;;46.50;14.90;;;;;;5051244;28;20343;-71
2023/06/18 09:38:31;;;;;;;;;;;46.30;15.10;;;;;;5052013;28;19986;-70
2023/06/18 09:40:56;;;;;;;;;;;46.40;15.20;;;;;;5051897;28;20259;-71
2023/06/18 09:43:22;;;;;;;;;;;46.50;15.20;;;;;;5049886;28;19923;-71
2023/06/18 09:45:47;;;;;;;;;;;46.50;15.20;;;;;;5050790;28;20376;-70
2023/06/18 09:48:13;;;;;;;;;;;46.50;15.00;;;;;;5033085;28;19920;-71
2023/06/18 09:50:38;;;;;;;;;;;46.40;15.00;;;;;;5050995;28;19967;-68
2023/06/18 09:53:04;;;;;;;;;;;46.20;15.00;;;;;;5028834;28;19932;-70
2023/06/18 09:55:30;;;;;;;;;;;46.20;15.10;;;;;;5046783;28;19916;-70
2023/06/18 09:57:57;;;;;;;;;;;46.30;15.10;;;;;;5049807;28;19917;-70
2023/06/18 10:00:23;;;;;;;;;;;46.40;15.10;;;;;;5032891;28;19967;-70
2023/06/18 10:02:48;;;;;;;;;;;46.70;15.00;;;;;;5032339;28;19917;-70
2023/06/18 10:05:14;;;;;;;;;;;46.80;14.70;;;;;;5050756;28;20595;-70
2023/06/18 10:07:42;;;;;;;;;;;46.80;14.80;;;;;;5050920;28;19924;-71
2023/06/18 10:10:13;;;;;;;;;;;46.80;14.40;;;;;;5050753;28;19919;-70
2023/06/18 10:12:41;;;;;;;;;;;46.60;14.60;;;;;;5031647;28;19925;-69
2023/06/18 10:15:07;;;;;;;;;;;46.70;14.90;;;;;;5041060;28;19975;-70
2023/06/18 10:17:34;;;;;;;;;;;46.80;14.50;;;;;;5051010;28;20377;-70
2023/06/18 10:19:59;;;;;;;;;;;46.60;14.20;;;;;;5031939;28;20391;-70
2023/06/18 10:22:27;;;;;;;;;;;46.30;14.40;;;;;;5049836;28;19999;-70
2023/06/18 10:25:03;;;;;;;;;;;46.00;14.30;;;;;;5032962;28;20344;-70
2023/06/18 10:27:29;;;;;;;;;;;45.80;14.60;;;;;;5037990;28;19983;-69
2023/06/18 10:29:57;;;;;;;;;;;45.40;14.40;;;;;;5037411;28;19956;-70
2023/06/18 10:32:23;;;;;;;;;;;45.20;14.60;;;;;;5047590;28;20016;-70
2023/06/18 10:34:49;;;;;;;;;;;45.00;14.50;;;;;;5053877;28;19948;-70
2023/06/18 10:37:14;;;;;;;;;;;44.70;14.70;;;;;;5052606;28;20315;-71
2023/06/18 10:39:40;;;;;;;;;;;44.50;14.80;;;;;;5053674;28;19917;-71
2023/06/18 10:42:13;;;;;;;;;;;44.40;15.00;;;;;;5052593;28;19921;-78
2023/06/18 10:44:47;;;;;;;;;;;44.30;15.20;;;;;;5054479;28;19929;-71
2023/06/18 10:47:17;;;;;;;;;;;44.30;15.30;;;;;;5045702;28;19936;-69
2023/06/18 10:50:03;;;;;;;;;;;43.90;14.80;;;;;;5051446;28;19917;-71
2023/06/18 10:52:31;;;;;;;;;;;43.80;15.10;;;;;;5054822;28;19912;-69
2023/06/18 10:55:15;;;;;;;;;;;43.80;15.10;;;;;;5054087;28;19912;-70
2023/06/18 10:57:45;;;;;;;;;;;43.80;15.10;;;;;;5054784;28;20648;-70
2023/06/18 11:00:17;;;;;;;;;;;43.60;15.20;;;;;;5053461;28;20297;-71
2023/06/18 11:02:44;;;;;;;;;;;43.40;15.20;;;;;;5054634;28;19923;-70
2023/06/18 11:05:36;;;;;;;;;;;43.30;15.30;;;;;;5054824;28;19955;-71
2023/06/18 11:08:02;;;;;;;;;;;43.40;15.30;;;;;;5054062;28;20333;-70
2023/06/18 11:10:31;;;;;;;;;;;43.40;15.50;;;;;;5054743;28;19919;-70
2023/06/18 11:12:57;;;;;;;;;;;43.50;15.40;;;;;;5018801;28;20269;-70
2023/06/18 11:15:22;;;;;;;;;;;43.60;15.20;;;;;;5047358;28;19920;-70
2023/06/18 11:17:53;;;;;;;;;;;43.40;15.00;;;;;;5041478;28;19924;-69
2023/06/18 11:20:19;;;;;;;;;;;43.20;14.90;;;;;;5051590;28;19967;-70
2023/06/18 11:22:45;;;;;;;;;;;43.00;15.10;;;;;;5053617;28;20367;-70
2023/06/18 11:25:12;;;;;;;;;;;43.00;15.00;;;;;;5055270;28;19913;-71
2023/06/18 11:27:41;;;;;;;;;;;43.00;15.00;;;;;;5052967;28;20394;-71
2023/06/18 11:30:08;;;;;;;;;;;43.00;14.80;;;;;;5052274;28;19923;-71
2023/06/18 11:32:33;;;;;;;;;;;43.20;15.10;;;;;;5065077;28;19961;-71
2023/06/18 11:34:59;;;;;;;;;;;43.30;14.50;;;;;;5054114;28;19916;-71
2023/06/18 11:37:28;;;;;;;;;;;43.30;14.40;;;;;;5054169;28;19919;-70
2023/06/18 11:39:55;;;;;;;;;;;43.30;14.40;;;;;;5052693;28;19913;-71
2023/06/18 11:42:21;;;;;;;;;;;43.40;14.50;;;;;;5048067;28;20371;-72
2023/06/18 11:44:46;;;;;;;;;;;43.60;14.60;;;;;;5052549;28;19917;-70
2023/06/18 11:47:12;;;;;;;;;;;43.70;14.40;;;;;;5051214;28;19912;-71
2023/06/18 11:49:40;;;;;;;;;;;43.80;14.60;;;;;;5035944;28;19986;-70
2023/06/18 11:52:06;;;;;;;;;;;43.70;14.30;;;;;;5056856;28;19920;-70
2023/06/18 11:54:34;;;;;;;;;;;43.70;14.40;;;;;;5058914;28;20024;-70
2023/06/18 11:56:59;;;;;;;;;;;43.70;14.70;;;;;;5052735;28;19923;-70
2023/06/18 11:59:26;;;;;;;;;;;43.80;14.80;;;;;;5034850;28;19955;-71
2023/06/18 12:01:51;;;;;;;;;;;43.80;14.20;;;;;;5041571;28;20003;-70
2023/06/18 12:04:17;;;;;;;;;;;43.80;14.40;;;;;;5033537;28;20338;-70
2023/06/18 12:06:42;;;;;;;;;;;43.80;14.00;;;;;;5035905;28;19913;-70
2023/06/18 12:09:10;;;;;;;;;;;43.60;14.00;;;;;;5035238;28;19913;-70
2023/06/18 12:11:49;;;;;;;;;;;43.40;14.20;;;;;;5047656;28;19951;-69
2023/06/18 12:14:21;;;;;;;;;;;43.40;14.40;;;;;;5030753;28;19916;-70
2023/06/18 12:16:49;;;;;;;;;;;43.30;14.30;;;;;;5052021;28;19971;-71
2023/06/18 12:19:15;;;;;;;;;;;43.30;14.40;;;;;;5040385;28;20004;-70
2023/06/18 12:21:42;;;;;;;;;;;43.30;14.40;;;;;;5032824;28;19913;-71
2023/06/18 12:24:07;;;;;;;;;;;43.20;14.40;;;;;;5053538;28;19924;-71
2023/06/18 12:26:33;;;;;;;;;;;43.20;14.40;;;;;;5047924;28;19947;-71
2023/06/18 12:28:58;;;;;;;;;;;43.30;14.40;;;;;;5048879;28;19924;-71
2023/06/18 12:31:24;;;;;;;;;;;43.50;14.50;;;;;;5049668;28;19959;-71
2023/06/18 12:33:49;;;;;;;;;;;43.40;14.30;;;;;;5032926;28;19920;-70
2023/06/18 12:36:15;;;;;;;;;;;43.30;14.00;;;;;;5021765;28;20003;-71
2023/06/18 12:38:41;;;;;;;;;;;43.20;13.90;;;;;;5038934;28;19917;-70
2023/06/18 12:41:06;;;;;;;;;;;42.90;14.20;;;;;;5032583;28;20008;-70
2023/06/18 12:43:38;;;;;;;;;;;42.80;14.30;;;;;;5028247;28;20012;-70
2023/06/18 12:46:04;;;;;;;;;;;42.80;14.40;;;;;;5051307;28;19913;-71
2023/06/18 12:48:36;;;;;;;;;;;42.70;14.20;;;;;;5042416;28;20353;-71
2023/06/18 12:51:02;;;;;;;;;;;42.80;14.40;;;;;;5032615;28;19909;-70
2023/06/18 12:53:28;;;;;;;;;;;42.90;14.30;;;;;;5044779;28;19924;-69
2023/06/18 12:55:57;;;;;;;;;;;42.80;14.10;;;;;;5048024;28;19924;-70
2023/06/18 12:58:27;;;;;;;;;;;42.70;14.20;;;;;;5014930;28;19924;-71
2023/06/18 13:00:54;;;;;;;;;;;42.40;14.20;;;;;;5034946;28;19909;-71
2023/06/18 13:03:20;;;;;;;;;;;42.20;14.60;;;;;;5033668;28;19920;-70
2023/06/18 13:05:46;;;;;;;;;;;42.40;14.70;;;;;;5046240;28;19983;-70
2023/06/18 13:08:13;;;;;;;;;;;42.40;14.70;;;;;;5066003;28;20360;-69
2023/06/18 13:10:39;;;;;;;;;;;42.40;14.60;;;;;;5060161;28;19956;-69
2023/06/18 13:13:04;;;;;;;;;;;42.40;14.80;;;;;;5043049;28;19952;-70
2023/06/18 13:15:29;;;;;;;;;;;42.50;14.50;;;;;;5034855;28;19909;-69
2023/06/18 13:17:55;;;;;;;;;;;42.20;14.50;;;;;;5060635;28;20333;-71
2023/06/18 13:20:21;;;;;;;;;;;42.00;14.70;;;;;;5051249;28;19928;-71
2023/06/18 13:22:46;;;;;;;;;;;41.90;14.90;;;;;;5042645;28;19948;-70
2023/06/18 13:25:12;;;;;;;;;;;41.90;14.80;;;;;;5056427;28;19913;-71
2023/06/18 13:27:38;;;;;;;;;;;41.80;14.60;;;;;;5053838;28;19909;-71
2023/06/18 13:30:04;;;;;;;;;;;41.70;14.80;;;;;;5034520;28;19915;-70
2023/06/18 13:32:30;;;;;;;;;;;41.50;15.10;;;;;;5053920;28;19917;-70
2023/06/18 13:34:55;;;;;;;;;;;41.50;15.20;;;;;;5051950;28;19920;-69
2023/06/18 13:37:21;;;;;;;;;;;41.30;15.10;;;;;;5050767;28;20008;-70
2023/06/18 13:39:46;;;;;;;;;;;41.10;15.10;;;;;;5048814;28;20375;-70
2023/06/18 13:42:13;;;;;;;;;;;40.80;15.20;;;;;;5036164;28;20385;-72
2023/06/18 13:44:40;;;;;;;;;;;40.70;15.40;;;;;;5051286;28;20265;-71
2023/06/18 13:47:06;;;;;;;;;;;40.60;15.60;;;;;;5034083;28;19999;-70
2023/06/18 13:49:33;;;;;;;;;;;40.50;15.70;;;;;;5050907;28;21669;-71
2023/06/18 13:51:59;;;;;;;;;;;40.70;15.70;;;;;;5032886;28;20458;-70
2023/06/18 13:54:24;;;;;;;;;;;40.80;15.70;;;;;;5051068;28;20360;-70
2023/06/18 13:56:50;;;;;;;;;;;40.80;15.90;;;;;;5051557;28;19916;-72
2023/06/18 13:59:16;;;;;;;;;;;41.00;15.90;;;;;;5050794;28;19924;-71
2023/06/18 14:01:41;;;;;;;;;;;41.30;15.60;;;;;;5051598;28;19917;-71
2023/06/18 14:04:07;;;;;;;;;;;41.30;15.50;;;;;;5051169;28;19917;-73
2023/06/18 14:06:34;;;;;;;;;;;41.20;15.70;;;;;;5051876;28;20339;-69
2023/06/18 14:09:00;;;;;;;;;;;41.10;15.70;;;;;;5045350;28;20022;-71
2023/06/18 14:11:27;;;;;;;;;;;41.10;15.80;;;;;;5051822;28;19952;-71